Time;durP1;ratioP1;P1;durP2;ratioP2;P2;SDS_P1;SDS_P2;PMS_P1;PMS_P2;Temp;Humidity;BMP_temperature;BMP_pressure;BME280_temperature;BME280_humidity;BME280_pressure;Samples;Min_cycle;Max_cycle;Signal;HPM_P1;HPM_P2
2022/08/04 00:00:28;;;;;;;23.60;9.48;;;22.20;99.90;;;;;;5023291;28;20228;-77
2022/08/04 00:03:20;;;;;;;20.73;9.63;;;22.10;99.90;;;;;;5036405;28;20605;-77
2022/08/04 00:06:34;;;;;;;23.50;11.60;;;22.10;99.90;;;;;;5027690;28;20562;-77
2022/08/04 00:09:26;;;;;;;20.17;10.07;;;22.00;99.90;;;;;;5031297;28;20235;-77
2022/08/04 00:12:14;;;;;;;20.45;11.57;;;22.00;99.90;;;;;;5032187;28;20271;-77
2022/08/04 00:15:00;;;;;;;18.80;10.02;;;22.00;99.90;;;;;;5030613;28;20187;-77
2022/08/04 00:17:49;;;;;;;19.25;11.02;;;22.00;99.90;;;;;;5026649;28;20254;-77
2022/08/04 00:20:37;;;;;;;18.17;10.32;;;22.00;99.90;;;;;;5031194;28;20281;-78
2022/08/04 00:23:24;;;;;;;17.20;10.68;;;22.00;99.90;;;;;;5032531;28;20192;-78
2022/08/04 00:26:08;;;;;;;24.05;11.05;;;21.90;99.90;;;;;;5031611;28;20287;-78
2022/08/04 00:28:54;;;;;;;16.13;10.13;;;21.90;99.90;;;;;;5042413;28;20291;-78
2022/08/04 00:31:41;;;;;;;18.73;11.00;;;21.90;99.90;;;;;;5028964;28;20326;-78
2022/08/04 00:34:27;;;;;;;25.10;10.90;;;21.90;99.90;;;;;;5032952;28;20179;-77
2022/08/04 00:37:13;;;;;;;24.10;10.85;;;21.80;99.90;;;;;;5031848;28;20279;-77
2022/08/04 00:40:00;;;;;;;24.30;10.80;;;21.80;99.90;;;;;;5032890;28;20277;-79
2022/08/04 00:42:50;;;;;;;23.17;10.95;;;21.80;99.90;;;;;;5034246;28;20200;-77
2022/08/04 00:45:59;;;;;;;22.48;10.15;;;21.70;99.90;;;;;;5028523;28;20180;-78
2022/08/04 00:49:02;;;;;;;24.13;10.07;;;21.70;99.90;;;;;;5026299;28;20230;-78
2022/08/04 00:51:54;;;;;;;25.40;10.93;;;21.70;99.90;;;;;;5043183;28;20179;-77
2022/08/04 00:55:03;;;;;;;23.52;10.75;;;21.70;99.90;;;;;;5030483;28;20203;-78
2022/08/04 00:58:10;;;;;;;16.67;10.90;;;21.60;99.90;;;;;;5027720;28;20194;-79
2022/08/04 01:01:01;;;;;;;15.70;9.75;;;21.60;99.90;;;;;;5040490;28;20295;-78
2022/08/04 01:03:52;;;;;;;24.08;11.48;;;21.60;99.90;;;;;;5027655;28;20196;-77
2022/08/04 01:06:48;;;;;;;22.27;10.55;;;21.60;99.90;;;;;;5025590;28;20227;-77
2022/08/04 01:10:03;;;;;;;16.48;10.73;;;21.50;99.90;;;;;;5027090;28;20217;-77
2022/08/04 01:12:59;;;;;;;18.45;10.73;;;21.50;99.90;;;;;;5028485;28;20307;-78
2022/08/04 01:15:58;;;;;;;22.90;10.38;;;21.60;99.90;;;;;;5028816;28;20253;-78
2022/08/04 01:19:04;;;;;;;21.50;10.90;;;21.50;99.90;;;;;;5026732;28;20732;-78
2022/08/04 01:22:28;;;;;;;19.83;11.57;;;21.50;99.90;;;;;;5028922;28;20268;-78
2022/08/04 01:25:24;;;;;;;20.05;11.00;;;21.50;99.90;;;;;;5028976;28;20230;-78
2022/08/04 01:28:28;;;;;;;21.55;11.32;;;21.50;99.90;;;;;;5027361;28;20187;-79
2022/08/04 01:31:27;;;;;;;25.48;10.73;;;21.40;99.90;;;;;;5023509;28;20319;-79
2022/08/04 01:34:12;;;;;;;16.70;10.43;;;21.40;99.90;;;;;;5029082;28;20238;-78
2022/08/04 01:37:10;;;;;;;19.70;11.18;;;21.50;99.90;;;;;;5025910;28;20702;-78
2022/08/04 01:40:06;;;;;;;23.35;10.80;;;21.40;99.90;;;;;;5023842;28;20335;-78
2022/08/04 01:42:52;;;;;;;21.02;11.65;;;21.30;99.90;;;;;;5029064;28;20191;-78
2022/08/04 01:45:37;;;;;;;23.73;10.65;;;21.30;99.90;;;;;;5026129;28;20679;-78
2022/08/04 01:48:26;;;;;;;20.90;10.63;;;21.30;99.90;;;;;;5029547;28;20646;-78
2022/08/04 01:51:11;;;;;;;24.23;11.32;;;21.30;99.90;;;;;;5029595;28;20269;-78
2022/08/04 01:53:55;;;;;;;16.67;10.63;;;21.30;99.90;;;;;;5029337;28;20215;-78
2022/08/04 01:56:41;;;;;;;17.00;10.55;;;21.30;99.90;;;;;;5024782;28;20263;-78
2022/08/04 01:59:30;;;;;;;24.00;11.40;;;21.30;99.90;;;;;;5024589;28;20729;-78
2022/08/04 02:02:23;;;;;;;21.08;11.73;;;21.30;99.90;;;;;;5030993;28;20190;-78
2022/08/04 02:05:15;;;;;;;20.45;11.95;;;21.20;99.90;;;;;;5030706;28;20198;-78
2022/08/04 02:08:14;;;;;;;21.70;11.52;;;21.20;99.90;;;;;;5026957;28;20200;-79
2022/08/04 02:11:14;;;;;;;21.73;12.65;;;21.10;99.90;;;;;;5029560;28;20187;-77
2022/08/04 02:14:39;;;;;;;20.98;12.63;;;21.10;99.90;;;;;;5025124;28;20220;-77
2022/08/04 02:17:54;;;;;;;22.13;12.05;;;21.00;99.90;;;;;;5029691;28;20187;-78
2022/08/04 02:20:44;;;;;;;20.40;12.55;;;20.90;99.90;;;;;;5028928;28;20702;-77
2022/08/04 02:23:38;;;;;;;21.48;12.18;;;20.90;99.90;;;;;;5025190;28;20239;-78
2022/08/04 02:26:25;;;;;;;19.35;11.98;;;20.90;99.90;;;;;;5025025;28;20195;-77
2022/08/04 02:29:19;;;;;;;20.45;12.23;;;20.90;99.90;;;;;;5028649;28;20238;-79
2022/08/04 02:32:09;;;;;;;21.63;12.07;;;20.90;99.90;;;;;;5028396;28;20191;-77
2022/08/04 02:35:13;;;;;;;22.85;12.05;;;20.90;99.90;;;;;;5027845;28;20642;-77
2022/08/04 02:38:24;;;;;;;22.08;13.30;;;20.90;99.90;;;;;;5023126;28;20198;-79
2022/08/04 02:41:09;;;;;;;25.92;12.60;;;20.80;99.90;;;;;;5005012;28;20258;-76
2022/08/04 02:44:06;;;;;;;21.75;12.68;;;20.80;99.90;;;;;;5027789;28;20244;-78
2022/08/04 02:46:52;;;;;;;20.00;12.52;;;20.80;99.90;;;;;;5028232;28;20322;-78
2022/08/04 02:49:36;;;;;;;18.92;11.35;;;20.80;99.90;;;;;;5027175;28;20709;-79
2022/08/04 02:52:23;;;;;;;19.23;11.98;;;20.80;99.90;;;;;;5030242;28;20234;-78
2022/08/04 02:55:10;;;;;;;21.65;12.30;;;20.80;99.90;;;;;;5028739;28;20195;-78
2022/08/04 02:57:57;;;;;;;20.35;11.20;;;20.80;99.90;;;;;;5029413;28;20202;-78
2022/08/04 03:00:44;;;;;;;19.92;12.15;;;20.80;99.90;;;;;;5029891;28;20219;-78
2022/08/04 03:03:54;;;;;;;17.38;11.25;;;20.80;99.90;;;;;;5025175;28;20238;-78
2022/08/04 03:07:02;;;;;;;18.67;12.38;;;20.80;99.90;;;;;;5030179;28;20188;-78
2022/08/04 03:10:05;;;;;;;18.27;11.40;;;20.80;99.90;;;;;;5029377;28;20230;-78
2022/08/04 03:13:05;;;;;;;22.15;12.10;;;20.80;99.90;;;;;;5038255;28;20198;-78
2022/08/04 03:16:08;;;;;;;23.98;11.80;;;20.80;99.90;;;;;;5028939;28;20195;-79
2022/08/04 03:19:23;;;;;;;18.02;12.00;;;20.80;99.90;;;;;;5025701;28;20219;-78
2022/08/04 03:22:45;;;;;;;23.10;12.02;;;20.80;99.90;;;;;;5029538;28;20242;-78
2022/08/04 03:25:37;;;;;;;16.83;10.20;;;20.70;99.90;;;;;;5007028;28;20202;-78
2022/08/04 03:28:48;;;;;;;20.42;10.63;;;20.80;99.90;;;;;;5030471;28;20741;-78
2022/08/04 03:31:42;;;;;;;15.77;9.10;;;20.80;99.90;;;;;;5024786;28;20239;-80
2022/08/04 03:34:38;;;;;;;19.80;10.63;;;20.80;99.90;;;;;;5029495;28;20231;-77
2022/08/04 03:37:38;;;;;;;17.50;10.32;;;20.80;99.90;;;;;;5027592;28;20191;-79
2022/08/04 03:40:31;;;;;;;16.00;10.20;;;20.80;99.90;;;;;;5028285;28;20238;-78
2022/08/04 03:43:43;;;;;;;16.90;10.23;;;20.80;99.90;;;;;;5027297;28;20187;-78
2022/08/04 03:46:45;;;;;;;15.52;9.75;;;20.80;99.90;;;;;;5028526;28;20231;-78
2022/08/04 03:49:38;;;;;;;17.33;10.45;;;20.80;99.90;;;;;;5028604;28;20261;-78
2022/08/04 03:53:09;;;;;;;17.25;9.73;;;20.80;99.90;;;;;;5026333;28;20364;-80
2022/08/04 03:56:26;;;;;;;24.88;10.60;;;20.80;99.90;;;;;;5030853;28;20214;-79
2022/08/04 03:59:48;;;;;;;16.35;10.10;;;20.80;99.90;;;;;;5027070;28;20333;-78
2022/08/04 04:02:44;;;;;;;14.35;10.00;;;20.80;99.90;;;;;;5028346;28;20280;-78
2022/08/04 04:06:06;;;;;;;19.05;10.82;;;20.80;99.90;;;;;;5028026;28;20183;-78
2022/08/04 04:09:11;;;;;;;21.33;10.75;;;20.80;99.90;;;;;;5024000;28;20263;-78
2022/08/04 04:12:17;;;;;;;20.38;11.15;;;20.80;99.90;;;;;;5036690;28;20682;-78
2022/08/04 04:15:18;;;;;;;20.48;11.20;;;20.80;99.90;;;;;;5031992;28;20217;-78
2022/08/04 04:18:26;;;;;;;15.32;10.57;;;20.90;99.90;;;;;;5032152;28;20202;-79
2022/08/04 04:21:47;;;;;;;20.90;10.23;;;20.90;99.90;;;;;;5046741;28;20191;-78
2022/08/04 04:25:01;;;;;;;20.77;10.77;;;20.90;99.90;;;;;;5032808;28;20256;-79
2022/08/04 04:28:05;;;;;;;20.10;9.90;;;20.90;99.90;;;;;;5033291;28;20222;-79
2022/08/04 04:31:09;;;;;;;18.63;10.73;;;20.90;99.90;;;;;;5045228;28;20724;-79
2022/08/04 04:34:17;;;;;;;22.90;11.20;;;20.90;99.90;;;;;;5025561;28;20187;-79
2022/08/04 04:37:26;;;;;;;16.70;10.18;;;20.90;99.90;;;;;;5030084;28;20199;-78
2022/08/04 04:40:19;;;;;;;21.70;10.32;;;20.90;99.90;;;;;;5032750;28;20218;-78
2022/08/04 04:43:38;;;;;;;13.25;9.52;;;20.90;99.90;;;;;;5033234;28;20215;-78
2022/08/04 04:46:31;;;;;;;22.55;10.75;;;20.90;99.90;;;;;;5029419;28;20198;-79
2022/08/04 04:49:27;;;;;;;15.90;9.57;;;21.00;99.90;;;;;;5031988;28;20282;-79
2022/08/04 04:52:22;;;;;;;17.75;9.73;;;21.00;99.90;;;;;;5033049;28;20608;-78
2022/08/04 04:55:30;;;;;;;15.90;10.02;;;21.00;99.90;;;;;;5030359;28;20194;-78
2022/08/04 04:58:17;;;;;;;19.02;10.00;;;21.00;99.90;;;;;;5029645;28;20274;-78
2022/08/04 05:01:17;;;;;;;21.52;9.20;;;21.10;99.90;;;;;;5029547;28;20195;-80
2022/08/04 05:04:22;;;;;;;19.00;9.65;;;21.10;99.90;;;;;;5030327;28;20287;-78
2022/08/04 05:07:38;;;;;;;15.55;9.75;;;21.10;99.90;;;;;;5031856;28;20195;-78
2022/08/04 05:10:45;;;;;;;21.17;9.65;;;21.10;99.90;;;;;;5025356;28;20262;-78
2022/08/04 05:13:37;;;;;;;18.55;9.10;;;21.10;99.90;;;;;;5029730;28;20178;-78
2022/08/04 05:16:45;;;;;;;14.23;9.07;;;21.10;99.90;;;;;;5025330;28;20291;-78
2022/08/04 05:19:49;;;;;;;14.98;9.00;;;21.10;99.90;;;;;;5025696;28;20246;-78
2022/08/04 05:22:44;;;;;;;16.08;10.13;;;21.10;99.90;;;;;;5023472;28;20191;-78
2022/08/04 05:25:39;;;;;;;15.07;9.00;;;21.20;99.90;;;;;;5029944;28;20188;-79
2022/08/04 05:28:38;;;;;;;17.13;8.95;;;21.20;99.90;;;;;;5026552;28;20303;-79
2022/08/04 05:31:35;;;;;;;14.25;9.00;;;21.20;99.90;;;;;;5030355;28;20757;-78
2022/08/04 05:34:30;;;;;;;17.10;8.82;;;21.20;99.90;;;;;;5030509;28;20187;-78
2022/08/04 05:37:18;;;;;;;12.05;8.15;;;21.20;99.90;;;;;;5031668;28;20188;-78
2022/08/04 05:40:05;;;;;;;13.57;7.95;;;21.20;99.90;;;;;;5025749;28;20295;-79
2022/08/04 05:42:52;;;;;;;13.98;7.68;;;21.30;99.90;;;;;;5031337;28;20214;-80
2022/08/04 05:45:36;;;;;;;15.20;8.60;;;21.30;99.90;;;;;;5030978;28;20241;-78
2022/08/04 05:48:21;;;;;;;18.17;8.65;;;21.40;99.90;;;;;;5030519;28;20187;-79
2022/08/04 05:51:09;;;;;;;12.30;7.82;;;21.40;99.90;;;;;;5029498;28;20206;-78
2022/08/04 05:53:54;;;;;;;15.05;8.18;;;21.50;99.90;;;;;;5027264;28;20251;-77
2022/08/04 05:56:40;;;;;;;12.93;7.93;;;21.50;99.90;;;;;;5029672;28;20192;-80
2022/08/04 05:59:26;;;;;;;12.40;6.97;;;21.50;99.90;;;;;;5027697;28;20290;-79
2022/08/04 06:02:13;;;;;;;21.80;8.32;;;21.60;99.90;;;;;;5027216;28;20191;-79
2022/08/04 06:04:59;;;;;;;13.73;7.47;;;21.70;99.90;;;;;;5032407;28;20237;-76
2022/08/04 06:07:44;;;;;;;16.85;7.72;;;21.70;99.90;;;;;;5031010;28;20692;-81
2022/08/04 06:10:33;;;;;;;15.10;7.18;;;21.80;99.90;;;;;;5022936;28;20215;-80
2022/08/04 06:13:24;;;;;;;12.98;6.60;;;21.90;99.90;;;;;;5027953;28;20193;-80
2022/08/04 06:16:12;;;;;;;11.90;6.50;;;22.00;99.90;;;;;;5031686;28;20184;-80
2022/08/04 06:19:02;;;;;;;13.40;6.15;;;22.10;99.90;;;;;;5031714;28;20290;-80
2022/08/04 06:21:48;;;;;;;13.48;6.43;;;22.10;99.90;;;;;;5030309;28;20215;-78
2022/08/04 06:24:36;;;;;;;10.93;6.43;;;22.10;99.90;;;;;;5023683;28;20199;-76
2022/08/04 06:27:22;;;;;;;9.38;6.07;;;22.20;99.90;;;;;;5029395;28;20230;-78
2022/08/04 06:30:12;;;;;;;13.32;6.47;;;22.30;99.90;;;;;;5029613;28;20234;-79
2022/08/04 06:33:01;;;;;;;16.35;6.00;;;22.30;99.90;;;;;;5025528;28;20235;-75
2022/08/04 06:35:46;;;;;;;12.05;5.88;;;22.40;99.90;;;;;;5027879;28;20273;-78
2022/08/04 06:38:34;;;;;;;10.88;5.38;;;22.50;99.90;;;;;;5025604;28;20234;-78
2022/08/04 06:41:20;;;;;;;11.10;6.20;;;22.60;99.90;;;;;;5028753;28;20203;-77
2022/08/04 06:44:08;;;;;;;12.63;5.68;;;22.60;99.90;;;;;;5028659;28;20279;-77
2022/08/04 06:46:53;;;;;;;12.38;5.90;;;22.70;99.90;;;;;;5026048;28;20218;-76
2022/08/04 06:49:38;;;;;;;11.35;5.53;;;22.70;99.90;;;;;;5021010;28;20298;-77
2022/08/04 06:52:22;;;;;;;13.73;5.13;;;22.80;99.90;;;;;;5024520;28;20212;-77
2022/08/04 06:55:07;;;;;;;12.32;5.03;;;22.90;99.90;;;;;;5028517;28;20690;-79
2022/08/04 06:57:53;;;;;;;11.30;5.90;;;23.00;99.90;;;;;;5022154;28;20188;-79
2022/08/04 07:00:40;;;;;;;10.82;4.68;;;23.10;99.90;;;;;;5021511;28;20638;-79
2022/08/04 07:03:24;;;;;;;11.00;4.80;;;23.10;99.90;;;;;;5025664;28;20190;-77
2022/08/04 07:06:08;;;;;;;12.32;4.55;;;23.20;99.90;;;;;;5026701;28;20242;-78
2022/08/04 07:08:55;;;;;;;12.55;4.88;;;23.40;99.90;;;;;;5023479;28;20218;-78
2022/08/04 07:11:40;;;;;;;13.00;4.68;;;23.40;99.90;;;;;;5021241;28;20226;-78
2022/08/04 07:14:25;;;;;;;9.60;4.45;;;23.50;99.90;;;;;;5026291;28;20203;-79
2022/08/04 07:17:10;;;;;;;8.27;3.97;;;23.60;99.90;;;;;;5030146;28;20234;-76
2022/08/04 07:19:55;;;;;;;13.20;4.45;;;23.70;99.90;;;;;;5026105;28;20278;-77
2022/08/04 07:22:42;;;;;;;10.55;4.65;;;23.80;99.90;;;;;;5027652;28;20555;-77
2022/08/04 07:25:27;;;;;;;11.48;4.30;;;23.80;99.90;;;;;;5028658;28;20310;-77
2022/08/04 07:28:12;;;;;;;13.80;4.40;;;24.00;99.90;;;;;;5028139;28;20655;-79
2022/08/04 07:30:57;;;;;;;8.25;3.90;;;24.10;99.90;;;;;;5026573;28;20219;-78
2022/08/04 07:33:43;;;;;;;10.55;3.95;;;24.20;99.90;;;;;;5024679;28;20194;-78
2022/08/04 07:36:27;;;;;;;6.20;3.70;;;24.30;99.90;;;;;;5040244;28;20192;-76
2022/08/04 07:39:12;;;;;;;11.50;3.55;;;24.40;99.90;;;;;;5029316;28;20211;-78
2022/08/04 07:41:59;;;;;;;10.40;3.85;;;24.50;99.90;;;;;;5029165;28;20219;-82
2022/08/04 07:44:45;;;;;;;11.05;3.47;;;24.60;99.90;;;;;;5025733;28;20195;-77
2022/08/04 07:47:29;;;;;;;13.10;3.40;;;24.80;99.90;;;;;;5024370;28;20541;-77
2022/08/04 07:50:15;;;;;;;12.70;3.75;;;24.90;99.90;;;;;;5026824;28;20238;-76
2022/08/04 07:53:00;;;;;;;10.02;3.28;;;25.00;99.90;;;;;;5026301;28;20690;-77
2022/08/04 07:55:46;;;;;;;10.80;4.35;;;25.10;99.90;;;;;;5028833;28;20191;-77
2022/08/04 07:58:30;;;;;;;8.38;3.38;;;25.20;99.90;;;;;;5024594;28;20323;-78
2022/08/04 08:01:14;;;;;;;8.02;3.20;;;25.30;99.90;;;;;;5022221;28;20195;-78
2022/08/04 08:03:59;;;;;;;8.20;3.40;;;25.40;99.90;;;;;;5025518;28;20254;-82
2022/08/04 08:06:43;;;;;;;8.48;2.90;;;25.50;99.90;;;;;;5028092;28;20287;-82
2022/08/04 08:09:33;;;;;;;17.35;3.20;;;25.60;99.90;;;;;;5027968;28;20238;-82
2022/08/04 08:12:17;;;;;;;12.02;3.10;;;25.70;99.90;;;;;;5024150;28;20585;-81
2022/08/04 08:15:03;;;;;;;7.88;2.92;;;25.80;99.90;;;;;;5031734;28;21365;-81
2022/08/04 08:17:47;;;;;;;9.20;2.80;;;25.90;99.90;;;;;;5033501;28;20725;-82
2022/08/04 08:20:32;;;;;;;11.35;2.70;;;26.00;99.90;;;;;;5033425;28;20587;-82
2022/08/04 08:23:16;;;;;;;5.10;2.60;;;26.10;99.90;;;;;;5028184;28;20218;-81
2022/08/04 08:26:00;;;;;;;6.88;3.00;;;26.20;99.90;;;;;;5032411;28;20200;-82
2022/08/04 08:28:45;;;;;;;11.90;3.05;;;26.30;99.90;;;;;;5026569;28;20223;-82
2022/08/04 08:31:30;;;;;;;9.70;3.25;;;26.50;99.90;;;;;;5030558;28;20215;-81
2022/08/04 08:34:14;;;;;;;4.63;2.28;;;26.60;99.90;;;;;;5036016;28;20291;-82
2022/08/04 08:37:20;;;;;;;7.25;2.72;;;26.70;99.90;;;;;;5037307;28;20194;-83
2022/08/04 08:40:23;;;;;;;8.65;2.47;;;26.80;99.90;;;;;;5038344;28;20230;-83
2022/08/04 08:43:34;;;;;;;5.03;2.10;;;26.90;99.90;;;;;;5034296;28;20207;-83
2022/08/04 08:46:36;;;;;;;5.25;2.13;;;27.00;99.90;;;;;;5038832;28;20662;-83
2022/08/04 08:49:30;;;;;;;8.15;2.20;;;27.20;99.90;;;;;;5037245;28;20222;-83
2022/08/04 08:52:44;;;;;;;6.07;3.08;;;27.20;99.90;;;;;;5034252;28;20183;-82
2022/08/04 08:55:31;;;;;;;10.27;4.32;;;27.30;99.90;;;;;;5022557;28;20234;-82
2022/08/04 08:58:22;;;;;;;10.20;4.40;;;27.30;99.90;;;;;;5032311;28;20189;-82
2022/08/04 09:01:24;;;;;;;6.75;3.00;;;27.30;99.90;;;;;;5037211;28;20218;-83
2022/08/04 09:04:47;;;;;;;7.13;2.75;;;27.40;99.90;;;;;;5050188;28;20191;-82
2022/08/04 09:07:54;;;;;;;8.00;3.25;;;27.50;99.90;;;;;;5034703;28;20190;-83
2022/08/04 09:10:59;;;;;;;10.55;3.08;;;27.70;99.90;;;;;;5029874;28;20581;-83
2022/08/04 09:13:49;;;;;;;14.95;2.85;;;27.80;99.90;;;;;;5030976;28;20285;-83
2022/08/04 09:16:46;;;;;;;6.68;2.63;;;27.90;99.90;;;;;;5032970;28;20191;-83
2022/08/04 09:19:46;;;;;;;6.50;2.08;;;28.00;99.90;;;;;;5037426;28;20228;-83
2022/08/04 09:23:04;;;;;;;7.97;2.60;;;28.10;99.90;;;;;;5030805;28;20250;-78
2022/08/04 09:26:11;;;;;;;6.63;2.10;;;28.20;99.90;;;;;;5035075;28;20199;-79
2022/08/04 09:29:12;;;;;;;7.05;1.85;;;28.30;99.90;;;;;;5031681;28;20218;-79
2022/08/04 09:32:24;;;;;;;5.47;2.25;;;28.50;99.90;;;;;;5026615;28;20262;-79
2022/08/04 09:35:43;;;;;;;6.45;2.38;;;28.60;99.90;;;;;;5040647;28;20501;-78
2022/08/04 09:39:08;;;;;;;6.57;2.30;;;28.70;99.90;;;;;;5031324;28;20187;-79
2022/08/04 09:42:36;;;;;;;5.47;2.40;;;28.70;99.90;;;;;;5037195;28;20206;-79
2022/08/04 09:45:36;;;;;;;3.78;2.15;;;28.90;99.90;;;;;;5039326;28;20250;-79
2022/08/04 09:49:06;;;;;;;5.53;2.10;;;29.00;99.90;;;;;;5030709;28;20238;-79
2022/08/04 09:51:52;;;;;;;5.10;2.08;;;29.00;99.90;;;;;;5033268;28;20233;-79
2022/08/04 09:54:58;;;;;;;7.38;2.20;;;29.10;99.90;;;;;;5053405;28;20234;-80
2022/08/04 09:58:24;;;;;;;5.10;2.17;;;29.10;99.90;;;;;;5031741;28;20271;-80
2022/08/04 10:01:18;;;;;;;3.42;2.22;;;29.30;99.90;;;;;;5051954;28;20199;-79
2022/08/04 10:04:08;;;;;;;7.93;2.15;;;29.40;99.90;;;;;;5033294;28;20231;-79
2022/08/04 10:07:07;;;;;;;3.95;2.20;;;29.40;99.90;;;;;;5038017;28;20203;-79
2022/08/04 10:10:07;;;;;;;3.65;2.00;;;29.60;99.90;;;;;;5050535;28;20203;-79
2022/08/04 10:13:14;;;;;;;5.15;2.00;;;29.70;99.90;;;;;;5031084;28;20196;-79
2022/08/04 10:16:14;;;;;;;7.80;2.28;;;29.80;99.90;;;;;;5050956;28;20218;-79
2022/08/04 10:19:25;;;;;;;4.10;2.00;;;29.90;99.90;;;;;;5037966;28;20211;-79
2022/08/04 10:22:23;;;;;;;3.95;1.88;;;30.00;99.90;;;;;;5035402;28;20339;-84
2022/08/04 10:25:42;;;;;;;3.53;2.20;;;30.10;99.90;;;;;;5044475;28;20265;-84
2022/08/04 10:28:30;;;;;;;4.65;1.55;;;30.20;99.90;;;;;;5032972;28;20183;-85
2022/08/04 10:31:23;;;;;;;2.38;1.77;;;30.30;99.90;;;;;;5035910;28;20187;-84
2022/08/04 10:34:23;;;;;;;2.35;2.00;;;30.50;99.90;;;;;;5033850;28;20642;-85
2022/08/04 10:37:20;;;;;;;4.47;2.00;;;30.50;99.90;;;;;;5031634;28;20246;-84
2022/08/04 10:40:44;;;;;;;7.10;2.10;;;30.60;99.90;;;;;;5036412;28;20245;-85
2022/08/04 10:43:34;;;;;;;4.90;1.80;;;30.70;99.90;;;;;;5031892;28;20259;-85
2022/08/04 10:46:25;;;;;;;5.28;2.00;;;30.80;99.90;;;;;;5033046;28;20192;-84
2022/08/04 10:49:24;;;;;;;7.22;1.88;;;30.90;99.90;;;;;;5034314;28;20725;-84
2022/08/04 10:52:12;;;;;;;5.93;2.20;;;30.90;99.90;;;;;;5030372;28;20190;-84
2022/08/04 10:55:04;;;;;;;3.33;2.00;;;31.00;99.90;;;;;;5030276;28;20183;-84
2022/08/04 10:57:58;;;;;;;4.40;2.05;;;31.10;99.90;;;;;;5036402;28;20215;-85
2022/08/04 11:00:45;;;;;;;5.63;1.77;;;31.10;99.90;;;;;;5028835;28;20265;-84
2022/08/04 11:03:41;;;;;;;6.57;1.80;;;31.10;99.90;;;;;;5031925;28;20188;-84
2022/08/04 11:06:27;;;;;;;4.03;1.92;;;31.10;99.90;;;;;;5030146;28;20191;-84
2022/08/04 11:09:12;;;;;;;3.45;1.90;;;31.30;99.90;;;;;;5031511;28;20266;-85
2022/08/04 11:12:08;;;;;;;7.93;1.80;;;31.30;99.90;;;;;;5032049;28;20183;-81
2022/08/04 11:15:11;;;;;;;5.70;2.20;;;31.40;99.90;;;;;;5030898;28;20262;-85
2022/08/04 11:18:00;;;;;;;4.65;1.88;;;31.40;99.90;;;;;;5034387;28;20199;-84
2022/08/04 11:21:10;;;;;;;3.70;1.98;;;31.50;99.90;;;;;;5034372;28;20230;-84
2022/08/04 11:24:03;;;;;;;3.40;1.85;;;31.50;99.90;;;;;;5026892;28;20219;-84
2022/08/04 11:26:56;;;;;;;4.90;1.73;;;31.50;99.90;;;;;;5033308;28;20239;-85
2022/08/04 11:29:58;;;;;;;2.40;1.60;;;31.60;99.90;;;;;;5031690;28;20272;-84
2022/08/04 11:37:17;;;;;;;3.95;1.65;;;31.80;99.90;;;;;;5026790;28;20515;-84
2022/08/04 11:40:40;;;;;;;3.67;1.55;;;31.90;99.90;;;;;;5029842;28;20630;-84
2022/08/04 11:43:41;;;;;;;6.35;2.10;;;32.00;99.90;;;;;;5013744;28;20332;-85
2022/08/04 11:46:41;;;;;;;3.88;1.70;;;32.10;99.90;;;;;;5032569;28;20202;-85
2022/08/04 11:49:40;;;;;;;5.22;1.70;;;32.10;99.90;;;;;;5033192;28;20246;-85
2022/08/04 11:52:27;;;;;;;2.28;1.45;;;32.20;99.90;;;;;;5028873;28;20277;-85
2022/08/04 11:55:15;;;;;;;4.93;1.40;;;32.20;99.90;;;;;;5030064;28;20234;-85
2022/08/04 11:57:59;;;;;;;3.78;1.35;;;32.20;99.90;;;;;;5034233;28;20225;-85
2022/08/04 12:01:13;;;;;;;7.43;1.30;;;32.30;99.90;;;;;;5034731;28;20243;-85
2022/08/04 12:04:07;;;;;;;5.05;1.40;;;32.40;99.90;;;;;;5029407;28;20331;-85
2022/08/04 12:06:59;;;;;;;9.57;1.52;;;32.40;99.90;;;;;;5039361;28;20182;-85
2022/08/04 12:10:19;;;;;;;4.32;1.40;;;32.40;99.90;;;;;;5033107;28;20219;-85
2022/08/04 12:13:12;;;;;;;5.30;1.73;;;32.60;99.90;;;;;;5037888;28;20227;-85
2022/08/04 12:16:20;;;;;;;2.83;1.77;;;32.60;99.90;;;;;;5037307;28;20223;-85
2022/08/04 12:19:17;;;;;;;4.97;1.48;;;32.70;99.90;;;;;;5053570;28;20223;-85
2022/08/04 12:22:08;;;;;;;4.65;1.30;;;32.80;99.90;;;;;;5040958;28;20210;-86
2022/08/04 12:25:00;;;;;;;6.35;1.40;;;32.90;99.90;;;;;;5037604;28;20264;-85
2022/08/04 12:27:48;;;;;;;1.70;1.60;;;32.90;99.90;;;;;;5033415;28;20229;-85
2022/08/04 12:30:48;;;;;;;5.85;1.73;;;32.80;99.90;;;;;;5028995;28;20218;-86
2022/08/04 12:33:52;;;;;;;5.30;1.52;;;32.80;99.90;;;;;;5036729;28;20666;-85
2022/08/04 12:37:06;;;;;;;2.58;1.70;;;32.80;99.90;;;;;;5040715;28;20190;-85
2022/08/04 12:39:55;;;;;;;4.10;1.88;;;32.80;99.90;;;;;;5036969;28;20291;-85
2022/08/04 12:43:10;;;;;;;6.93;2.03;;;32.70;99.90;;;;;;5035125;28;20200;-85
2022/08/04 12:45:59;;;;;;;4.85;1.65;;;32.70;99.90;;;;;;5036661;28;20199;-85
2022/08/04 12:48:46;;;;;;;2.90;1.38;;;32.60;99.90;;;;;;5030737;28;20219;-85
2022/08/04 12:51:43;;;;;;;5.65;1.90;;;32.60;99.90;;;;;;5033761;28;20294;-85
2022/08/04 12:54:31;;;;;;;8.45;1.95;;;32.70;99.90;;;;;;5036646;28;20682;-85
2022/08/04 12:57:17;;;;;;;7.00;2.63;;;32.80;99.90;;;;;;5033566;28;20227;-85
2022/08/04 13:00:04;;;;;;;11.48;2.33;;;33.00;99.90;;;;;;5034732;28;20259;-86
2022/08/04 13:03:01;;;;;;;7.93;2.53;;;33.00;99.90;;;;;;5034863;28;20190;-85
2022/08/04 13:05:47;;;;;;;5.30;3.05;;;33.00;99.90;;;;;;5037202;28;20229;-86
2022/08/04 13:08:36;;;;;;;8.75;3.35;;;33.00;99.90;;;;;;5032995;28;20183;-85
2022/08/04 13:11:22;;;;;;;5.38;2.47;;;32.90;99.90;;;;;;5026881;28;20215;-85
2022/08/04 13:14:11;;;;;;;8.70;2.60;;;32.80;99.90;;;;;;5027997;28;20208;-85
2022/08/04 13:16:58;;;;;;;7.57;3.05;;;32.70;99.90;;;;;;5031321;28;20249;-85
2022/08/04 13:19:55;;;;;;;9.07;2.50;;;32.70;99.90;;;;;;5034007;28;20583;-85
2022/08/04 13:22:41;;;;;;;3.88;2.10;;;32.70;99.90;;;;;;5031297;28;20239;-85
2022/08/04 13:25:31;;;;;;;7.13;2.65;;;32.60;99.90;;;;;;5033426;28;20198;-85
2022/08/04 13:28:22;;;;;;;8.32;2.13;;;32.50;99.90;;;;;;5030752;28;20183;-85
2022/08/04 13:31:21;;;;;;;8.32;2.63;;;32.50;99.90;;;;;;5034564;28;20208;-85
2022/08/04 13:34:07;;;;;;;9.98;2.03;;;32.30;99.90;;;;;;5034101;28;20194;-84
2022/08/04 13:36:55;;;;;;;6.75;2.42;;;32.30;99.90;;;;;;5034158;28;20191;-82
2022/08/04 13:39:45;;;;;;;15.23;2.50;;;32.10;99.90;;;;;;5033451;28;20219;-81
2022/08/04 13:42:32;;;;;;;21.80;3.90;;;31.90;99.90;;;;;;5030005;28;20246;-80
2022/08/04 13:45:20;;;;;;;16.42;4.28;;;31.20;99.90;;;;;;5036437;28;20223;-81
2022/08/04 13:48:06;;;;;;;17.90;5.50;;;30.00;99.90;;;;;;5042360;28;20195;-83
2022/08/04 13:50:51;;;;;;;21.40;6.18;;;29.00;99.90;;;;;;5037268;28;20199;-84
2022/08/04 13:53:37;;;;;;;15.02;6.38;;;27.80;99.90;;;;;;5034916;28;20195;-82
2022/08/04 13:56:23;;;;;;;9.50;5.32;;;26.70;99.90;;;;;;5039619;28;20210;-81
2022/08/04 13:59:10;;;;;;;12.30;5.50;;;25.90;99.90;;;;;;5039710;28;20219;-81
2022/08/04 14:02:04;;;;;;;10.15;4.80;;;25.50;99.90;;;;;;5036528;28;20206;-81
2022/08/04 14:04:53;;;;;;;11.80;4.38;;;25.10;99.90;;;;;;5028682;28;20256;-82
2022/08/04 14:07:45;;;;;;;6.03;4.43;;;24.90;99.90;;;;;;5033657;28;20187;-83
2022/08/04 14:10:31;;;;;;;7.22;4.10;;;24.80;99.90;;;;;;5030923;28;20219;-83
2022/08/04 14:13:28;;;;;;;7.70;3.47;;;24.70;99.90;;;;;;5035670;28;20284;-83
2022/08/04 14:16:15;;;;;;;6.28;3.30;;;24.60;99.90;;;;;;5035074;28;20268;-82
2022/08/04 14:19:00;;;;;;;7.32;3.35;;;24.60;99.90;;;;;;5029313;28;20291;-86
2022/08/04 14:21:52;;;;;;;6.82;3.80;;;24.60;99.90;;;;;;5029570;28;20277;-85
2022/08/04 14:24:39;;;;;;;8.55;3.40;;;24.60;99.90;;;;;;5028556;28;20319;-85
2022/08/04 14:27:24;;;;;;;7.28;3.10;;;24.50;99.90;;;;;;5024684;28;20277;-85
2022/08/04 14:30:34;;;;;;;3.80;3.17;;;24.50;99.90;;;;;;5023157;28;20287;-86
2022/08/04 14:33:21;;;;;;;5.70;2.72;;;24.50;99.90;;;;;;5024163;28;20183;-86
2022/08/04 14:36:07;;;;;;;5.03;2.60;;;24.50;99.90;;;;;;5031513;28;20209;-86
2022/08/04 14:38:54;;;;;;;7.47;2.58;;;24.40;99.90;;;;;;5031449;28;20222;-86
2022/08/04 14:41:49;;;;;;;7.32;2.80;;;24.40;99.90;;;;;;5028615;28;20219;-85
2022/08/04 14:44:54;;;;;;;6.55;2.60;;;24.40;99.90;;;;;;5025538;28;20196;-85
2022/08/04 14:47:43;;;;;;;5.43;2.95;;;24.30;99.90;;;;;;5028400;28;20182;-85
2022/08/04 14:50:41;;;;;;;5.57;2.60;;;24.30;99.90;;;;;;5026775;28;20402;-86
2022/08/04 14:53:28;;;;;;;5.15;2.95;;;24.30;99.90;;;;;;5028356;28;20190;-85
2022/08/04 14:56:12;;;;;;;7.07;2.60;;;24.30;99.90;;;;;;5020920;28;20653;-86
2022/08/04 14:59:00;;;;;;;6.25;2.70;;;24.30;99.90;;;;;;5029783;28;20214;-86
2022/08/04 15:01:47;;;;;;;3.38;2.72;;;24.30;99.90;;;;;;5030361;28;20223;-86
2022/08/04 15:04:32;;;;;;;2.63;2.42;;;24.20;99.90;;;;;;5025243;28;20187;-86